Flight Track Log - Related Links

Times and Time Zones

All times are in EDT time to prevent confusion due to time zone crossing. See the ASA67 flight status page for this flight to view local times or setup timezone preferences in your user account.

Time Position Orientation Groundspeed Altitude Reporting Facility
EDT Latitude Longitude Course Direction KTS MPH feet Rate Location/Type
06:53PM 47.4175 -122.3103 180° South 183 211 1,800  Level Seattle Center
06:54PM 47.3575 -122.3106 180° South 235 270 3,900 2,149 Climbing Seattle Center
06:54PM 47.3486 -122.3114 184° South 228 262 4,200 1,855 Climbing Seattle Center
06:55PM 47.3133 -122.3644 226° Southwest 282 325 5,600 1,672 Climbing Seattle Center
06:55PM 47.3103 -122.3964 262° West 264 304 5,900 873 Climbing Seattle Center
06:56PM 47.3144 -122.4650 275° West 277 319 6,400 1,180 Climbing Seattle Center
06:56PM 47.3306 -122.4997 304° West 273 314 7,100 2,753 Climbing Seattle Center
06:57PM 47.3908 -122.5875 315° West 284 327 10,300 2,293 Climbing Seattle Center
06:58PM 47.4600 -122.6781 318° Northwest 338 389 11,800 2,098 Climbing Seattle Center
06:59PM 47.5378 -122.7781 319° Northwest 371 427 14,600 2,410 Climbing Seattle Center
07:00PM 47.6164 -122.8797 319° Northwest 382 440 16,700 2,213 Climbing Seattle Center
07:01PM 47.6978 -122.9942 317° Northwest 395 455 19,100 2,311 Climbing Seattle Center
07:02PM 47.7797 -123.1156 315° West 409 471 21,400 2,262 Climbing Seattle Center
07:03PM 47.8594 -123.2347 315° West 409 471 23,700 1,967 Climbing Seattle Center
07:05PM 47.9403 -123.3556 315° West 409 471 25,400 1,131 Climbing Seattle Center
07:06PM 48.0244 -123.4789 316° Northwest 418 481 26,000 295 Climbing Seattle Center
07:07PM 48.1092 -123.6086 314° West 433 498 26,000  Level Seattle Center
07:08PM 48.2047 -123.7161 323° Northwest 433 498 26,000  Level Seattle Center
07:10PM 48.4167 -123.9000 330° Northwest 420 483 26,000  Level Vancouver Center
07:11PM 48.5167 -123.9833 331° Northwest 430 495 26,000  Level Vancouver Center
07:12PM 48.6333 -124.0500 339° North 430 495 26,000  Level Vancouver Center
07:13PM 48.7333 -124.1500 327° Northwest 430 495 26,000  Level Vancouver Center
07:14PM 48.8333 -124.2333 331° Northwest 420 483 26,000  Level Vancouver Center
07:15PM 48.9333 -124.3000 336° Northwest 430 495 26,000  Level Vancouver Center
07:16PM 49.0500 -124.4167 327° Northwest 420 483 26,000  Level Vancouver Center
07:17PM 49.1500 -124.4833 336° Northwest 400 460 26,000  Level Vancouver Center
07:18PM 49.2333 -124.5333 339° North 390 449 26,000  Level Vancouver Center
07:19PM 49.3333 -124.6500 323° Northwest 390 449 26,000  Level Vancouver Center
07:20PM 49.4333 -124.7167 337° Northwest 390 449 26,000  Level Vancouver Center
07:21PM 49.5333 -124.8000 332° Northwest 400 460 26,000  Level Vancouver Center
07:22PM 49.6167 -124.9000 322° Northwest 400 460 26,000  Level Vancouver Center
07:23PM 49.7167 -125.0167 323° Northwest 400 460 26,000  Level Vancouver Center
07:24PM 49.8167 -125.1000 332° Northwest 400 460 26,000  Level Vancouver Center
07:25PM 49.9000 -125.2000 322° Northwest 400 460 26,000  Level Vancouver Center
07:26PM 50.0000 -125.3000 327° Northwest 390 449 26,000  Level Vancouver Center
07:27PM 50.0833 -125.3833 327° Northwest 390 449 26,000  Level Vancouver Center
07:28PM 50.1667 -125.4667 327° Northwest 380 437 26,000  Level Vancouver Center
07:29PM 50.2667 -125.5667 327° Northwest 380 437 26,000  Level Vancouver Center
07:30PM 50.3500 -125.6500 327° Northwest 380 437 26,000  Level Vancouver Center
07:31PM 50.4167 -125.7667 312° West 380 437 26,000  Level Vancouver Center
07:32PM 50.5000 -125.8500 328° Northwest 380 437 26,000  Level Vancouver Center
07:33PM 50.6000 -125.9500 328° Northwest 380 437 26,000  Level Vancouver Center
07:34PM 50.6833 -126.0333 328° Northwest 380 437 26,000  Level Vancouver Center
07:35PM 50.7667 -126.1500 318° Northwest 380 437 26,000  Level Vancouver Center
07:36PM 50.8500 -126.2333 328° Northwest 380 437 26,000  Level Vancouver Center
07:37PM 50.9500 -126.3500 324° Northwest 390 449 26,000  Level Vancouver Center
07:38PM 51.0333 -126.4500 323° Northwest 390 449 26,000  Level Vancouver Center
07:39PM 51.1333 -126.5333 332° Northwest 390 449 26,000  Level Vancouver Center
07:40PM 51.2000 -126.6500 312° West 390 449 26,000  Level Vancouver Center
07:41PM 51.2833 -126.7333 328° Northwest 390 449 26,000  Level Vancouver Center
07:42PM 51.3833 -126.8500 324° Northwest 390 449 26,000  Level Vancouver Center
07:43PM 51.4667 -126.9333 328° Northwest 390 449 26,000  Level Vancouver Center
07:44PM 51.5667 -127.0500 324° Northwest 400 460 26,000 100 Level Vancouver Center
07:45PM 51.6500 -127.1667 319° Northwest 390 449 26,200 400 Climbing Vancouver Center
07:46PM 51.7667 -127.2000 350° North 400 460 26,800 400 Climbing Vancouver Center
07:47PM 51.8667 -127.1000 32° Northeast 430 495 27,000 100 Climbing Vancouver Center
07:48PM 51.9167 -126.9167 66° East 470 541 27,000  Level Vancouver Center
07:49PM 51.8833 -126.7000 104° East 490 564 27,000  Level Vancouver Center
07:50PM 51.8167 -126.5333 123° Southeast 500 575 27,000  Level Vancouver Center
07:51PM 51.6833 -126.4167 152° Southeast 490 564 27,000  Level Vancouver Center
07:52PM 51.5833 -126.2667 137° Southeast 490 564 27,000  Level Vancouver Center
07:53PM 51.4500 -126.1500 151° Southeast 490 564 27,000  Level Vancouver Center
07:54PM 51.3500 -126.0500 148° Southeast 490 564 27,000  Level Vancouver Center
07:55PM 51.2167 -125.9000 145° Southeast 490 564 27,000  Level Vancouver Center
07:56PM 51.1167 -125.8000 148° Southeast 490 564 27,000  Level Vancouver Center
07:57PM 51.0000 -125.6833 148° Southeast 500 575 27,000  Level Vancouver Center
07:58PM 50.8833 -125.5667 148° Southeast 500 575 27,000  Level Vancouver Center
07:59PM 50.7667 -125.4667 152° Southeast 500 575 27,000  Level Vancouver Center
08:00PM 50.6500 -125.3333 144° Southeast 500 575 27,000  Level Vancouver Center
08:01PM 50.5333 -125.2167 148° Southeast 500 575 27,000  Level Vancouver Center
08:02PM 50.4167 -125.0833 144° Southeast 490 564 27,000  Level Vancouver Center
08:03PM 50.3000 -124.9667 147° Southeast 490 564 27,000  Level Vancouver Center
08:04PM 50.1833 -124.8667 151° Southeast 490 564 27,000  Level Vancouver Center
08:05PM 50.0667 -124.7667 151° Southeast 490 564 27,000  Level Vancouver Center
08:06PM 49.9500 -124.6500 147° Southeast 490 564 27,000  Level Vancouver Center
08:07PM 49.8333 -124.5167 144° Southeast 490 564 27,000  Level Vancouver Center
08:08PM 49.7167 -124.4167 151° Southeast 490 564 27,000  Level Vancouver Center
08:09PM 49.6000 -124.3167 151° Southeast 490 564 27,000  Level Vancouver Center
08:10PM 49.4833 -124.2167 151° Southeast 490 564 27,000  Level Vancouver Center
08:11PM 49.3667 -124.1000 147° Southeast 490 564 27,000  Level Vancouver Center
08:12PM 49.2500 -123.9833 147° Southeast 490 564 27,000  Level Vancouver Center
08:13PM 49.1333 -123.8833 151° Southeast 490 564 27,000 -100 Level Vancouver Center
08:14PM 49.0167 -123.7667 147° Southeast 490 564 26,800 -250 Descending Vancouver Center
08:15PM 48.9000 -123.6667 151° Southeast 490 564 26,500 -350 Descending Vancouver Center
08:16PM 48.7833 -123.5500 147° Southeast 490 564 26,100 -350 Descending Vancouver Center
08:17PM 48.6667 -123.4500 150° Southeast 490 564 25,800 -800 Descending Vancouver Center
08:18PM 48.5500 -123.3500 150° Southeast 490 564 24,500 -1,800 Descending Vancouver Center
08:19PM 48.4500 -123.2500 146° Southeast 470 541 22,200 -2,200 Descending Vancouver Center
08:20PM 48.3500 -123.1500 146° Southeast 430 495 20,100 -2,100 Descending Vancouver Center
08:21PM 48.2500 -123.0667 151° Southeast 400 460 18,000 -2,118 Descending Vancouver Center
08:22PM 48.1867 -122.9858 140° Southeast 366 421 15,900 -2,024 Descending Seattle Center
08:22PM 48.1525 -122.9547 149° Southeast 363 418 15,200 -1,857 Descending Seattle Center
08:22PM 48.1264 -122.9292 147° Southeast 358 412 14,600 -1,869 Descending Seattle Center
08:23PM 48.0692 -122.8781 149° Southeast 349 402 13,300 -1,929 Descending Seattle Center
08:23PM 48.0494 -122.8589 147° Southeast 350 403 12,800 -1,180 Descending Seattle Center
08:24PM 48.0050 -122.7783 129° Southeast 338 389 12,100 -1,000 Descending Seattle Center
08:24PM 47.9919 -122.7514 126° Southeast 314 361 11,800 -1,548 Descending Seattle Center
08:25PM 47.9506 -122.6767 130° Southeast 316 364 10,500 -1,672 Descending Seattle Center
08:25PM 47.9383 -122.6519 126° Southeast 310 357 10,100 -1,574 Descending Seattle Center
08:26PM 47.8936 -122.5858 135° Southeast 300 345 8,900 -1,574 Descending Seattle Center
08:26PM 47.8767 -122.5639 139° Southeast 291 335 8,500 -1,377 Descending Seattle Center
08:27PM 47.8358 -122.5028 135° Southeast 289 333 7,500 -1,433 Descending Seattle Center
08:27PM 47.8133 -122.4700 136° Southeast 284 327 6,900 -1,258 Descending Seattle Center
08:28PM 47.7742 -122.4214 140° Southeast 273 314 6,200 -885 Descending Seattle Center
08:28PM 47.7583 -122.4014 140° Southeast 258 297 6,000 -787 Descending Seattle Center
08:29PM 47.7192 -122.3494 138° Southeast 249 287 5,400 -787 Descending Seattle Center
08:29PM 47.7086 -122.3367 141° Southeast 222 255 5,200 -689 Descending Seattle Center
08:30PM 47.6667 -122.3067 154° Southeast 229 264 4,700 -982 Descending Seattle Center
08:30PM 47.6564 -122.3064 179° South 229 264 4,300 -1,452 Descending Seattle Center
08:31PM 47.5983 -122.3075 181° South 244 281 3,200 -1,274 Descending Seattle Center
08:32PM 47.5431 -122.3069 180° South 203 234 1,900 -1,120 Descending Seattle Center
08:32PM 47.5300 -122.3072 181° South 196 226 1,800 -787 Descending Seattle Center
08:33PM 47.4925 -122.3075 180° South 159 183 1,100 -885 Descending Seattle Center
08:33PM 47.4833 -122.3069 178° South 146 168 900 -590 Descending Seattle Center
08:34PM 47.4569 -122.3092 183° South 153 176 500 Descending Seattle Center
08:36PM 47.5669 -122.4150 234° Southwest  Level Estimated
08:44PM 47.8444 -123.2221 317° Northwest  Level FlightAware Approximate
08:45PM 47.9213 -123.3310 316° Northwest  Level FlightAware Approximate
08:46PM 47.9971 -123.4417 316° Northwest  Level FlightAware Approximate
08:47PM 48.0727 -123.5528 316° Northwest  Level FlightAware Approximate
08:48PM 48.1483 -123.6641 316° Northwest  Level FlightAware Approximate
08:49PM 48.2447 -123.7298 336° Northwest  Level FlightAware Approximate
08:50PM 48.3388 -123.8031 332° Northwest  Level FlightAware Approximate
08:51PM 48.4328 -123.8772 332° Northwest  Level FlightAware Approximate
08:52PM 48.5266 -123.9515 332° Northwest  Level FlightAware Approximate
08:53PM 48.6205 -124.0261 332° Northwest  Level FlightAware Approximate
08:54PM 48.7142 -124.1010 332° Northwest  Level FlightAware Approximate
08:55PM 48.8080 -124.1762 332° Northwest  Level FlightAware Approximate
08:56PM 48.9016 -124.2516 332° Northwest  Level FlightAware Approximate
08:57PM 48.9953 -124.3274 332° Northwest  Level FlightAware Approximate
08:58PM 49.0889 -124.4034 332° Northwest  Level FlightAware Approximate
08:59PM 49.1824 -124.4797 332° Northwest  Level FlightAware Approximate
09:00PM 49.2759 -124.5563 332° Northwest  Level FlightAware Approximate
09:01PM 49.3693 -124.6332 332° Northwest  Level FlightAware Approximate
09:02PM 49.4627 -124.7104 332° Northwest  Level FlightAware Approximate
09:03PM 49.5560 -124.7879 332° Northwest  Level FlightAware Approximate
09:04PM 49.6493 -124.8656 332° Northwest  Level FlightAware Approximate
09:05PM 49.7425 -124.9437 332° Northwest  Level FlightAware Approximate
09:06PM 49.8308 -125.0345 326° Northwest  Level FlightAware Approximate
09:07PM 49.9186 -125.1268 326° Northwest  Level FlightAware Approximate
09:08PM 50.0063 -125.2194 326° Northwest  Level FlightAware Approximate
09:09PM 50.0937 -125.3128 325° Northwest  Level FlightAware Approximate
09:10PM 50.1805 -125.4078 325° Northwest  Level FlightAware Approximate
09:11PM 50.2672 -125.5031 325° Northwest  Level FlightAware Approximate
09:12PM 50.3539 -125.5988 325° Northwest  Level FlightAware Approximate
09:13PM 50.4404 -125.6948 325° Northwest  Level FlightAware Approximate
09:14PM 50.5269 -125.7912 325° Northwest  Level FlightAware Approximate
09:15PM 50.6133 -125.8880 325° Northwest  Level FlightAware Approximate
09:16PM 50.6996 -125.9851 324° Northwest  Level FlightAware Approximate
09:17PM 50.7857 -126.0830 324° Northwest  Level FlightAware Approximate
09:18PM 50.8716 -126.1812 324° Northwest  Level FlightAware Approximate
09:19PM 50.9575 -126.2798 324° Northwest  Level FlightAware Approximate
09:20PM 51.0433 -126.3788 324° Northwest  Level FlightAware Approximate
09:21PM 51.1290 -126.4781 324° Northwest  Level FlightAware Approximate
09:22PM 51.2147 -126.5778 324° Northwest  Level FlightAware Approximate
09:23PM 51.3002 -126.6779 324° Northwest  Level FlightAware Approximate
09:24PM 51.3857 -126.7784 324° Northwest  Level FlightAware Approximate
09:25PM 51.4711 -126.8792 324° Northwest  Level FlightAware Approximate
09:26PM 51.5564 -126.9804 324° Northwest  Level FlightAware Approximate
09:27PM 51.6416 -127.0819 324° Northwest  Level FlightAware Approximate
09:28PM 51.7267 -127.1839 323° Northwest  Level FlightAware Approximate
09:29PM 51.8117 -127.2862 323° Northwest  Level FlightAware Approximate
09:30PM 51.8966 -127.3890 323° Northwest  Level FlightAware Approximate
09:31PM 51.9815 -127.4921 323° Northwest  Level FlightAware Approximate
09:32PM 52.0663 -127.5956 323° Northwest  Level FlightAware Approximate
09:33PM 52.1509 -127.6995 323° Northwest  Level FlightAware Approximate
09:34PM 52.2355 -127.8038 323° Northwest  Level FlightAware Approximate
09:35PM 52.3200 -127.9085 323° Northwest  Level FlightAware Approximate
09:36PM 52.4044 -128.0136 323° Northwest  Level FlightAware Approximate
09:37PM 52.4887 -128.1191 323° Northwest  Level FlightAware Approximate
09:38PM 52.5800 -128.2045 323° Northwest  Level FlightAware Approximate
09:39PM 52.6641 -128.3108 323° Northwest  Level FlightAware Approximate
09:39PM 47.4294 -122.3136 322° Northwest 177 204 1,200  Level Seattle Center
09:39PM 47.4189 -122.3161 189° South 175 201 1,700 2,301 Climbing Seattle Center
09:40PM 52.7481 -128.4176 322° Northwest  Level FlightAware Approximate
09:40PM 47.3550 -122.3186 182° South 242 278 4,000  Level Seattle Center
09:40PM 47.3172 -122.3436 204° Southwest 266 306 5,400 3,049 Climbing Seattle Center
09:41PM 52.8320 -128.5247 322° Northwest  Level FlightAware Approximate
09:41PM 47.3119 -122.3847 259° West 278 320 7,100  Level Seattle Center
09:41PM 47.3117 -122.4494 270° West 261 300 9,000 2,412 Climbing Seattle Center
09:42PM 52.9159 -128.6323 322° Northwest  Level FlightAware Approximate
09:42PM 47.3569 -122.5439 305° West 288 331 11,000  Level Seattle Center
09:43PM 52.9996 -128.7403 322° Northwest  Level FlightAware Approximate
09:44PM 53.0832 -128.8487 322° Northwest  Level FlightAware Approximate
09:44PM 47.4311 -122.6364 320° Northwest 349 402 12,800  Level Seattle Center
09:45PM 47.5089 -122.7389 318° Northwest 371 427 15,800 2,410 Climbing Seattle Center
09:46PM 47.5792 -122.8292 319° Northwest 373 429 17,700 2,083 Climbing Seattle Center
09:47PM 47.6731 -122.9186 299° West 393 452 20,000 2,281 Climbing Seattle Center
09:48PM 47.7881 -123.0292 327° Northwest 405 466 22,300 1,967 Climbing Seattle Center
09:49PM 47.8844 -123.1225 327° Northwest 412 474 24,000 836 Climbing Seattle Center
09:50PM 47.9808 -123.2181 311° West 412 474 24,000  Level Seattle Center
09:51PM 48.0794 -123.3117 328° Northwest 416 479 24,000  Level Seattle Center
09:52PM 48.1767 -123.4072 327° Northwest 418 481 24,000  Level Seattle Center
09:53PM 48.2714 -123.5011 327° Northwest 416 479 24,000  Level Seattle Center
09:54PM 48.3833 -123.6167 326° Northwest 410 472 24,000  Level Vancouver Center
09:55PM 48.4833 -123.7167 326° Northwest 410 472 24,000  Level Vancouver Center
09:56PM 48.5833 -123.8167 327° Northwest 420 483 24,000  Level Vancouver Center
09:57PM 48.6667 -123.9333 317° Northwest 420 483 24,000  Level Vancouver Center
09:58PM 48.7667 -124.0000 320° Northwest 420 483 24,000  Level Vancouver Center
09:59PM 48.8667 -124.1000 327° Northwest 420 483 24,000  Level Vancouver Center
10:00PM 48.9667 -124.2000 327° Northwest 410 472 24,000  Level Vancouver Center
10:01PM 49.0500 -124.3167 317° Northwest 410 472 24,000  Level Vancouver Center
10:02PM 49.1500 -124.4167 327° Northwest 420 483 24,000  Level Vancouver Center
10:03PM 49.2500 -124.5167 327° Northwest 420 483 24,000  Level Vancouver Center
10:04PM 49.3500 -124.6167 327° Northwest 420 483 24,000  Level Vancouver Center
10:05PM 49.4500 -124.7167 327° Northwest 420 483 24,000  Level Vancouver Center
10:06PM 49.5333 -124.8000 327° Northwest 420 483 24,000  Level Vancouver Center
10:07PM 49.6333 -124.9000 327° Northwest 420 483 24,000  Level Vancouver Center
10:08PM 49.7333 -125.0167 323° Northwest 420 483 24,000  Level Vancouver Center
10:09PM 49.8167 -125.1167 322° Northwest 420 483 24,000  Level Vancouver Center
10:10PM 49.9333 -125.2333 327° Northwest 420 483 24,000  Level Vancouver Center
10:11PM 50.0167 -125.3333 322° Northwest 420 483 24,000  Level Vancouver Center
10:12PM 50.1167 -125.4333 327° Northwest 420 483 24,000  Level Vancouver Center
10:13PM 50.2167 -125.5167 332° Northwest 420 483 24,000  Level Vancouver Center
10:14PM 50.3167 -125.6333 323° Northwest 420 483 24,000  Level Vancouver Center
10:15PM 50.3833 -125.7333 316° Northwest 420 483 24,000  Level Vancouver Center
10:16PM 50.4833 -125.8500 323° Northwest 420 483 24,000  Level Vancouver Center
10:17PM 50.5833 -125.9500 328° Northwest 420 483 24,000  Level Vancouver Center
10:18PM 50.6833 -126.0667 324° Northwest 420 483 24,000  Level Vancouver Center
10:19PM 50.7667 -126.1500 328° Northwest 410 472 24,000  Level Vancouver Center
10:20PM 50.8667 -126.2667 324° Northwest 400 460 24,000  Level Vancouver Center
10:21PM 50.9667 -126.3667 328° Northwest 400 460 24,000  Level Vancouver Center
10:22PM 51.0500 -126.4500 325° Northwest 400 460 24,000  Level Vancouver Center
10:23PM 51.1500 -126.5667 324° Northwest 400 460 24,000  Level Vancouver Center
10:24PM 51.2167 -126.6833 312° West 410 472 24,000  Level Vancouver Center
10:25PM 51.3167 -126.7833 328° Northwest 410 472 24,000  Level Vancouver Center
10:26PM 51.4167 -126.8833 325° Northwest 400 460 24,000  Level Vancouver Center
10:27PM 51.5000 -126.9833 323° Northwest 400 460 24,000  Level Vancouver Center
10:28PM 51.6000 -127.1000 324° Northwest 400 460 24,000  Level Vancouver Center
10:29PM 51.7000 -127.2167 324° Northwest 400 460 24,000  Level Vancouver Center
10:30PM 51.7667 -127.3000 322° Northwest 400 460 24,000  Level Vancouver Center
10:31PM 51.8667 -127.4167 324° Northwest 410 472 24,000  Level Vancouver Center
10:32PM 51.9500 -127.5333 319° Northwest 410 472 24,000  Level Vancouver Center
10:33PM 52.0500 -127.6500 324° Northwest 410 472 24,000  Level Vancouver Center
10:34PM 52.1500 -127.7500 328° Northwest 410 472 24,000  Level Vancouver Center
10:35PM 52.2333 -127.8667 319° Northwest 410 472 24,000  Level Vancouver Center
10:36PM 52.3167 -127.9833 319° Northwest 400 460 24,000  Level Vancouver Center
10:37PM 52.4000 -128.0667 329° Northwest 400 460 24,000  Level Vancouver Center
10:38PM 52.5000 -128.1833 325° Northwest 400 460 24,000  Level Vancouver Center
10:39PM 52.6000 -128.3000 326° Northwest 400 460 24,000  Level Vancouver Center
10:40PM 52.6667 -128.4167 313° West 400 460 24,000  Level Vancouver Center
10:41PM 52.7667 -128.5167 329° Northwest 400 460 24,000  Level Vancouver Center
10:42PM 52.8500 -128.6333 320° Northwest 400 460 24,000  Level Vancouver Center
10:43PM 52.9500 -128.7500 325° Northwest 400 460 24,000  Level Vancouver Center
10:44PM 53.0333 -128.8833 316° Northwest 410 472 24,000  Level Vancouver Center
10:45PM 53.1333 -128.9833 329° Northwest 400 460 24,000  Level Vancouver Center
10:46PM 53.2167 -129.1000 320° Northwest 400 460 24,000  Level Vancouver Center
10:47PM 53.2833 -129.2167 314° West 400 460 24,000  Level Vancouver Center
10:48PM 53.3833 -129.3167 329° Northwest 400 460 24,000  Level Vancouver Center
10:49PM 53.4667 -129.4333 320° Northwest 400 460 24,000  Level Vancouver Center
10:50PM 53.5667 -129.5667 322° Northwest 400 460 24,000  Level Vancouver Center
10:51PM 53.6333 -129.6500 323° Northwest 390 449 24,000  Level Vancouver Center
10:52PM 53.7333 -129.7833 322° Northwest 400 460 24,000  Level Vancouver Center
10:53PM 53.8333 -129.9167 322° Northwest 400 460 24,000  Level Vancouver Center
10:54PM 53.9000 -130.0000 324° Northwest 400 460 24,000  Level Vancouver Center
10:55PM 54.0000 -130.1333 322° Northwest 400 460 24,000  Level Vancouver Center
10:56PM 54.0833 -130.2667 317° Northwest 400 460 24,000  Level Vancouver Center
10:57PM 54.1667 -130.3667 325° Northwest 400 460 24,000  Level Vancouver Center
10:58PM 54.2667 -130.4833 326° Northwest 400 460 24,000  Level Vancouver Center
10:59PM 54.3500 -130.6167 317° Northwest 400 460 24,000 -750 Level Vancouver Center
11:00PM 54.4167 -130.7167 319° Northwest 400 460 22,500 -2,100 Descending Vancouver Center
11:01PM 54.5167 -130.8500 322° Northwest 390 449 19,800 -2,650 Descending Vancouver Center
11:02PM 54.6000 -130.9500 325° Northwest 380 437 17,200 -2,800 Descending Vancouver Center
11:03PM 54.6667 -131.0667 315° West 360 414 14,200 -2,750 Descending Vancouver Center
11:04PM 54.7500 -131.1667 325° Northwest 360 414 11,700 -2,150 Descending Vancouver Center
11:05PM 54.8167 -131.2833 315° West 350 403 9,900 -1,150 Descending Vancouver Center
11:06PM 54.8833 -131.3667 324° Northwest 300 345 9,400 -1,000 Descending Vancouver Center
11:07PM 54.9667 -131.4167 341° North 270 311 7,900 -1,400 Descending Vancouver Center
11:08PM 55.0333 -131.4833 330° Northwest 260 299 6,600 -1,450 Descending Vancouver Center
11:09PM 55.1000 -131.5333 337° Northwest 250 288 5,000 -1,500 Descending Vancouver Center
11:10PM 55.1333 -131.6000 311° West 250 288 3,600 -1,400 Descending Vancouver Center
11:12PM 55.1802 -131.6302 330° Northwest  Level FlightAware Approximate
11:19PM 55.3500 -131.7000 347° North  Level FlightAware Approximate
11:20PM 55.3541 -131.7112 North  Level Estimated
11:21PM 55.3541 -131.7112 123° Southeast  Level Estimated
11:22PM 55.3541 -131.7112 347° North  Level Estimated
11:23PM 55.3541 -131.7112 123° Southeast  Level Estimated
11:24PM 55.3541 -131.7112 123° Southeast  Level Estimated
11:25PM 55.3541 -131.7112 347° North  Level Estimated

Login

Don't have an account? Register now (free) for customized features, flight alerts, and more!